Terminal Aerodrome Forecast
Issued by NWS Dodge City, KS

Home | Current Version | Previous Version | Graphics & Text | Print | Product List | Glossary Off
Versions: 1 2 3 4 5 6 7 8 9 10 11 12 13 14

000
FTUS43 KDDC 270530
TAFDDC
TAF
KDDC 270530Z 2706/2806 12010KT P6SM SKC
     FM271300 16010KT P6SM BKN045
     FM271700 34010KT P6SM BKN050
     FM272000 35015G23KT P6SM BKN060=

USA.gov is the U.S. government's official web portal to all federal, state and local government web resources and services.